createdAt,value
2022-11-26T00:00:49.455Z,5.82
2022-11-26T00:03:17.167Z,5.83
2022-11-26T00:05:46.742Z,5.82
2022-11-26T00:08:31.516Z,5.78
2022-11-26T00:10:59.047Z,5.79
2022-11-26T00:13:28.741Z,5.80
2022-11-26T00:15:57.158Z,5.76
2022-11-26T00:18:26.639Z,5.80
2022-11-26T00:20:55.901Z,5.80
2022-11-26T00:23:25.712Z,5.79
2022-11-26T00:26:01.426Z,5.78
2022-11-26T00:28:34.628Z,5.84
2022-11-26T00:31:04.107Z,5.81
2022-11-26T00:33:31.866Z,5.84
2022-11-26T00:36:14.475Z,5.86
2022-11-26T00:38:41.953Z,5.84
2022-11-26T00:41:18.224Z,5.85
2022-11-26T00:43:46.434Z,5.84
2022-11-26T00:46:15.296Z,5.83
2022-11-26T00:48:43.905Z,5.81
2022-11-26T00:51:26.210Z,5.76
2022-11-26T00:53:55.235Z,5.72
2022-11-26T00:56:23.011Z,5.74
2022-11-26T00:58:51.003Z,5.72
2022-11-26T01:01:21.296Z,5.74
2022-11-26T01:03:49.243Z,5.72
2022-11-26T01:06:21.235Z,5.73
2022-11-26T01:08:49.041Z,5.71
2022-11-26T01:11:19.182Z,5.74
2022-11-26T01:13:47.656Z,5.74
2022-11-26T01:16:18.826Z,5.76
2022-11-26T01:18:47.462Z,5.73
2022-11-26T01:21:15.773Z,5.73
2022-11-26T01:23:43.046Z,5.73
2022-11-26T01:26:23.864Z,5.76
2022-11-26T01:28:51.886Z,5.75
2022-11-26T01:31:22.011Z,5.74
2022-11-26T01:33:51.834Z,5.73
2022-11-26T01:36:25.203Z,5.74
2022-11-26T01:38:57.466Z,5.73
2022-11-26T01:41:44.077Z,5.73
2022-11-26T01:44:24.516Z,5.74
2022-11-26T01:46:52.662Z,5.74
2022-11-26T01:49:32.304Z,5.76
2022-11-26T01:52:24.792Z,5.74
2022-11-26T01:54:52.356Z,5.71
2022-11-26T01:57:27.018Z,5.72
2022-11-26T01:59:59.340Z,5.72
2022-11-26T02:02:27.665Z,5.74
2022-11-26T02:05:09.667Z,5.74
2022-11-26T02:07:39.073Z,5.74
2022-11-26T02:10:07.276Z,5.75
2022-11-26T02:12:34.662Z,5.73
2022-11-26T02:15:02.238Z,5.76
2022-11-26T02:17:37.202Z,5.77
2022-11-26T02:20:13.604Z,5.73
2022-11-26T02:22:46.976Z,5.78
2022-11-26T02:25:19.991Z,5.74
2022-11-26T02:27:58.553Z,5.73
2022-11-26T02:30:26.087Z,5.72
2022-11-26T02:33:12.550Z,5.72
2022-11-26T02:35:47.508Z,5.72
2022-11-26T02:38:24.156Z,5.72
2022-11-26T02:40:52.599Z,5.70
2022-11-26T02:43:20.648Z,5.69
2022-11-26T02:45:55.817Z,5.71
2022-11-26T02:48:27.767Z,5.72
2022-11-26T02:50:58.729Z,5.69
2022-11-26T02:53:29.289Z,5.67
2022-11-26T02:56:08.977Z,5.68
2022-11-26T05:38:14.057Z,5.28
2022-11-26T05:40:45.102Z,5.32
2022-11-26T05:43:19.215Z,5.33
2022-11-26T05:45:53.716Z,5.36
2022-11-26T05:48:22.529Z,5.36
2022-11-26T05:53:57.462Z,5.38
2022-11-26T05:56:59.932Z,5.37
2022-11-26T05:59:32.092Z,5.34
2022-11-26T06:02:00.377Z,5.33
2022-11-26T06:04:31.638Z,5.34
2022-11-26T06:07:14.322Z,5.31
2022-11-26T06:13:52.118Z,5.34
2022-11-26T06:19:07.209Z,5.43
2022-11-26T06:21:43.424Z,5.43
2022-11-26T06:24:27.959Z,5.42
2022-11-26T06:26:57.936Z,5.41
2022-11-26T06:29:28.312Z,5.41
2022-11-26T06:31:56.692Z,5.43
2022-11-26T06:34:24.367Z,5.45
2022-11-26T06:36:53.296Z,5.48
2022-11-26T06:39:21.021Z,5.47
2022-11-26T06:41:48.891Z,5.52
2022-11-26T06:44:17.006Z,5.51
2022-11-26T06:46:44.713Z,5.53
2022-11-26T06:49:12.623Z,5.54
2022-11-26T06:51:40.463Z,5.53
2022-11-26T06:54:08.041Z,5.55
2022-11-26T06:56:35.790Z,5.55
2022-11-26T06:59:03.227Z,5.57
2022-11-26T07:01:30.993Z,5.60
2022-11-26T07:03:59.323Z,5.61
2022-11-26T07:06:28.898Z,5.62
2022-11-26T07:08:58.239Z,5.65
2022-11-26T07:11:26.618Z,5.62
2022-11-26T07:13:54.340Z,5.62
2022-11-26T07:16:22.119Z,5.57
2022-11-26T07:18:51.800Z,5.63
2022-11-26T07:21:20.346Z,5.62
2022-11-26T07:23:50.820Z,5.67
2022-11-26T07:26:20.120Z,5.66
2022-11-26T07:28:47.984Z,5.67
2022-11-26T07:31:33.594Z,5.71
2022-11-26T07:34:01.749Z,5.72
2022-11-26T07:36:30.598Z,5.71
2022-11-26T07:38:59.262Z,5.72
2022-11-26T07:41:28.146Z,5.68
2022-11-26T07:43:55.638Z,5.69
2022-11-26T07:46:25.464Z,5.66
2022-11-26T07:48:54.945Z,5.64
2022-11-26T07:51:23.448Z,5.64
2022-11-26T07:53:51.154Z,5.65
2022-11-26T07:56:19.162Z,5.66
2022-11-26T07:58:46.975Z,5.65
2022-11-26T08:01:20.009Z,5.68
2022-11-26T08:03:48.533Z,5.69
2022-11-26T08:06:20.995Z,5.70
2022-11-26T08:08:51.489Z,5.70
2022-11-26T08:11:30.901Z,5.69
2022-11-26T08:14:03.956Z,5.74
2022-11-26T08:16:32.858Z,5.78
2022-11-26T08:19:05.736Z,5.78
2022-11-26T08:21:34.696Z,5.77
2022-11-26T08:24:03.770Z,5.79
2022-11-26T08:26:37.042Z,5.76
2022-11-26T08:29:06.387Z,5.71
2022-11-26T08:31:35.098Z,5.69
2022-11-26T08:34:03.458Z,5.69
2022-11-26T08:36:31.544Z,5.72
2022-11-26T08:39:00.435Z,5.75
2022-11-26T08:41:28.273Z,5.78
2022-11-26T08:44:11.164Z,5.76
2022-11-26T08:46:41.187Z,5.74
2022-11-26T08:49:12.213Z,5.69
2022-11-26T08:51:39.914Z,5.70
2022-11-26T08:54:07.379Z,5.71
2022-11-26T08:56:34.845Z,5.68
2022-11-26T08:59:02.601Z,5.72
2022-11-26T09:01:32.681Z,5.74
2022-11-26T09:04:02.089Z,5.79
2022-11-26T09:06:31.369Z,5.79
2022-11-26T09:09:15.798Z,5.78
2022-11-26T09:11:49.200Z,5.78
2022-11-26T09:14:19.302Z,5.79
2022-11-26T09:16:48.934Z,5.75
2022-11-26T09:19:19.591Z,5.79
2022-11-26T09:21:47.789Z,5.85
2022-11-26T09:24:16.779Z,5.89
2022-11-26T09:26:44.159Z,5.88
2022-11-26T09:29:16.435Z,5.90
2022-11-26T09:32:15.374Z,5.96
2022-11-26T09:34:33.879Z,6.03
2022-11-26T09:37:01.455Z,6.06
2022-11-26T09:39:29.219Z,6.04
2022-11-26T09:42:11.128Z,6.02
2022-11-26T09:45:05.023Z,5.98
2022-11-26T09:47:41.610Z,5.96
2022-11-26T09:50:11.550Z,5.94
2022-11-26T09:52:50.474Z,5.95
2022-11-26T09:55:19.978Z,5.92
2022-11-26T09:58:26.722Z,5.88
2022-11-26T10:01:00.838Z,5.87
2022-11-26T10:03:38.907Z,5.84
2022-11-26T10:06:21.692Z,5.80
2022-11-26T10:08:54.712Z,5.82
2022-11-26T10:11:31.399Z,5.78
2022-11-26T10:14:14.196Z,5.68
2022-11-26T10:16:44.194Z,5.63
2022-11-26T10:19:24.735Z,5.61
2022-11-26T10:22:00.795Z,5.58
2022-11-26T10:24:32.708Z,5.57
2022-11-26T10:27:10.039Z,5.57
2022-11-26T10:29:46.286Z,5.60
2022-11-26T10:32:16.938Z,5.63
2022-11-26T10:35:14.463Z,5.58
2022-11-26T10:37:41.889Z,5.57
2022-11-26T10:40:27.052Z,5.53
2022-11-26T10:43:08.385Z,5.53
2022-11-26T10:45:47.894Z,5.56
2022-11-26T10:48:34.048Z,5.53
2022-11-26T10:51:16.391Z,5.49
2022-11-26T10:53:58.625Z,5.43
2022-11-26T10:56:42.769Z,5.44
2022-11-26T10:59:22.588Z,5.44
2022-11-26T11:01:54.318Z,5.45
2022-11-26T11:04:29.694Z,5.48
2022-11-26T11:06:58.511Z,5.47
2022-11-26T11:09:33.640Z,5.46
2022-11-26T11:12:22.136Z,5.45
2022-11-26T11:14:51.415Z,5.43
2022-11-26T11:17:34.927Z,5.46
2022-11-26T11:20:39.362Z,5.46
2022-11-26T11:23:18.805Z,5.45
2022-11-26T11:25:57.622Z,5.43
2022-11-26T11:28:27.619Z,5.46
2022-11-26T11:31:09.061Z,5.47
2022-11-26T11:33:36.701Z,5.50
2022-11-26T11:36:18.645Z,5.54
2022-11-26T11:38:52.363Z,5.56
2022-11-26T11:41:27.358Z,5.56
2022-11-26T11:44:23.992Z,5.55
2022-11-26T11:47:29.807Z,5.60
2022-11-26T11:50:03.729Z,5.60
2022-11-26T11:53:30.252Z,5.66
2022-11-26T11:56:21.153Z,5.68
2022-11-26T11:59:13.300Z,5.66
2022-11-26T12:02:00.771Z,5.67
2022-11-26T12:04:43.396Z,5.61
2022-11-26T12:07:34.975Z,5.57
2022-11-26T12:10:05.705Z,5.57
2022-11-26T12:12:38.701Z,5.53
2022-11-26T12:15:51.897Z,5.49
2022-11-26T12:18:27.317Z,5.46
2022-11-26T12:20:59.404Z,5.50
2022-11-26T12:23:32.608Z,5.53
2022-11-26T12:26:06.372Z,5.55
2022-11-26T12:28:39.085Z,5.57
2022-11-26T12:31:19.770Z,5.58
2022-11-26T12:34:04.156Z,5.59
2022-11-26T12:37:16.761Z,5.61
2022-11-26T12:40:07.501Z,5.62
2022-11-26T12:42:44.363Z,5.59
2022-11-26T12:45:34.333Z,5.51
2022-11-26T12:48:07.838Z,5.49
2022-11-26T12:50:42.880Z,5.47
2022-11-26T12:53:19.550Z,5.47
2022-11-26T12:55:52.056Z,5.43
2022-11-26T12:58:24.450Z,5.43
2022-11-26T13:00:54.710Z,5.43
2022-11-26T13:03:30.534Z,5.45
2022-11-26T13:06:35.801Z,5.47
2022-11-26T13:09:37.245Z,5.47
2022-11-26T13:12:11.536Z,5.47
2022-11-26T13:14:54.051Z,5.42
2022-11-26T13:17:45.042Z,5.43
2022-11-26T13:20:14.983Z,5.42
2022-11-26T13:23:03.881Z,5.41
2022-11-26T14:04:10.964Z,5.24
2022-11-26T14:07:04.862Z,5.19
2022-11-26T14:09:47.400Z,5.22
2022-11-26T14:12:16.431Z,5.24
2022-11-26T14:14:47.844Z,5.26
2022-11-26T14:17:24.920Z,5.28
2022-11-26T14:19:55.980Z,5.23
2022-11-26T14:29:34.975Z,5.17
2022-11-26T14:32:16.751Z,5.18
2022-11-26T14:41:09.221Z,5.17
2022-11-26T14:46:33.133Z,5.16
2022-11-26T14:49:02.059Z,5.14
2022-11-26T14:51:34.303Z,5.17
2022-11-26T14:54:31.344Z,5.18
2022-11-26T14:57:10.610Z,5.19
2022-11-26T14:59:55.039Z,5.20
2022-11-26T15:02:30.502Z,5.18
2022-11-26T15:06:13.718Z,5.19
2022-11-26T15:12:42.020Z,5.15
2022-11-26T15:16:02.359Z,5.11
2022-11-26T15:21:51.058Z,5.08
2022-11-26T15:24:20.987Z,5.08
2022-11-26T15:29:56.308Z,5.07
2022-11-26T15:32:31.644Z,5.14
2022-11-26T15:35:02.463Z,5.14
2022-11-26T15:40:26.482Z,5.18
2022-11-26T15:43:11.177Z,5.17
2022-11-26T15:45:47.476Z,5.12
2022-11-26T15:48:50.552Z,5.10
2022-11-26T15:51:51.991Z,5.09
2022-11-26T15:54:26.404Z,5.09
2022-11-26T15:57:08.151Z,5.01
2022-11-26T15:59:45.647Z,4.98
2022-11-26T16:02:22.069Z,5.00
2022-11-26T16:05:31.723Z,4.97
2022-11-26T16:09:01.984Z,4.99
2022-11-26T16:11:38.202Z,4.93
2022-11-26T16:14:40.097Z,4.93
2022-11-26T16:17:36.447Z,4.91
2022-11-26T16:23:45.462Z,4.92
2022-11-26T16:33:56.057Z,4.91
2022-11-26T16:36:38.760Z,4.90
2022-11-26T16:42:18.307Z,4.90
2022-11-26T16:45:04.151Z,4.92
2022-11-26T16:47:39.656Z,4.92
2022-11-26T16:50:21.226Z,4.92
2022-11-26T16:56:12.908Z,4.93
2022-11-26T16:58:59.126Z,4.96
2022-11-26T17:01:49.782Z,4.97
2022-11-26T17:04:32.131Z,4.96
2022-11-26T17:13:38.516Z,4.94
2022-11-26T17:16:35.923Z,4.93
2022-11-26T17:19:21.200Z,4.96
2022-11-26T17:25:20.636Z,4.96
2022-11-26T17:31:38.397Z,4.91
2022-11-26T17:34:15.537Z,4.89
2022-11-26T17:36:44.920Z,4.88
2022-11-26T17:39:13.025Z,4.90
2022-11-26T17:45:36.440Z,4.89
2022-11-26T17:48:09.942Z,4.88
2022-11-26T17:50:45.319Z,4.87
2022-11-26T17:53:23.507Z,4.86
2022-11-26T17:57:14.333Z,4.86
2022-11-26T17:59:56.535Z,4.87
2022-11-26T21:25:53.404Z,4.12
2022-11-26T21:28:20.796Z,4.12
2022-11-26T21:30:48.550Z,4.13
2022-11-26T21:33:15.887Z,4.12
2022-11-26T21:35:43.159Z,4.12
2022-11-26T21:38:11.200Z,4.10
2022-11-26T21:40:38.725Z,4.11
2022-11-26T21:43:05.993Z,4.11
2022-11-26T21:45:33.819Z,4.12
2022-11-26T21:48:01.072Z,4.13
2022-11-26T21:50:28.353Z,4.11
2022-11-26T21:52:55.672Z,4.12
2022-11-26T21:55:23.215Z,4.12
2022-11-26T21:57:50.497Z,4.14
2022-11-26T22:00:18.533Z,4.16
2022-11-26T22:02:47.415Z,4.18
2022-11-26T22:05:15.252Z,4.15
2022-11-26T22:07:43.155Z,4.18
2022-11-26T22:10:11.290Z,4.18
2022-11-26T22:12:40.859Z,4.17
2022-11-26T22:15:08.719Z,4.20
2022-11-26T22:17:36.517Z,4.15
2022-11-26T22:20:09.472Z,4.15
2022-11-26T22:22:37.401Z,4.12
2022-11-26T22:25:10.031Z,4.07
2022-11-26T22:27:43.229Z,4.08
2022-11-26T22:30:24.686Z,4.06
2022-11-26T22:32:53.296Z,4.04
2022-11-26T22:35:21.150Z,4.04
2022-11-26T22:37:49.194Z,4.04
2022-11-26T22:40:17.195Z,4.05
2022-11-26T22:42:46.766Z,4.06
2022-11-26T22:45:14.735Z,4.06
2022-11-26T22:47:48.511Z,4.05
2022-11-26T22:50:19.431Z,4.02
2022-11-26T22:52:53.277Z,4.04
2022-11-26T22:55:20.898Z,4.04
2022-11-26T22:57:49.021Z,4.05
2022-11-26T23:00:56.017Z,4.04
2022-11-26T23:03:26.637Z,4.04
2022-11-26T23:05:54.854Z,4.08
2022-11-26T23:08:25.394Z,4.07
2022-11-26T23:10:53.186Z,4.05
2022-11-26T23:13:20.718Z,4.02
2022-11-26T23:15:48.402Z,4.03
2022-11-26T23:18:18.532Z,4.00
2022-11-26T23:20:46.471Z,3.98
2022-11-26T23:23:14.195Z,3.95
2022-11-26T23:25:43.188Z,3.94
2022-11-26T23:28:12.485Z,3.91
2022-11-26T23:30:41.461Z,3.92
2022-11-26T23:33:09.577Z,3.91
2022-11-26T23:35:38.375Z,3.89
2022-11-26T23:38:07.667Z,3.88
2022-11-26T23:40:37.792Z,3.83
2022-11-26T23:43:08.613Z,3.79
2022-11-26T23:45:36.564Z,3.77
2022-11-26T23:48:05.824Z,3.76
2022-11-26T23:50:38.533Z,3.78
2022-11-26T23:53:06.657Z,3.80
2022-11-26T23:55:35.446Z,3.80
2022-11-26T23:58:03.190Z,3.80
